createdAt,value
2022-08-30T00:02:31.609Z,7.43
2022-08-30T00:05:10.418Z,8.02
2022-08-30T00:07:36.644Z,8.02
2022-08-30T00:10:04.087Z,6.97
2022-08-30T00:12:32.740Z,8.23
2022-08-30T00:14:59.509Z,6.88
2022-08-30T00:17:26.651Z,6.60
2022-08-30T00:20:07.736Z,9.13
2022-08-30T00:22:34.760Z,7.03
2022-08-30T00:25:01.312Z,5.93
2022-08-30T00:27:28.637Z,6.35
2022-08-30T00:29:55.594Z,6.55
2022-08-30T00:32:24.629Z,6.57
2022-08-30T00:34:52.315Z,6.55
2022-08-30T00:37:19.652Z,5.88
2022-08-30T00:39:46.348Z,6.63
2022-08-30T00:42:14.065Z,5.85
2022-08-30T00:44:41.821Z,5.25
2022-08-30T00:47:08.669Z,6.57
2022-08-30T00:49:37.316Z,5.72
2022-08-30T00:52:06.021Z,6.32
2022-08-30T00:54:35.347Z,6.22
2022-08-30T00:57:02.371Z,6.30
2022-08-30T00:59:29.305Z,5.65
2022-08-30T01:01:55.721Z,6.03
2022-08-30T01:04:27.080Z,6.65
2022-08-30T01:06:53.952Z,4.95
2022-08-30T01:09:20.979Z,6.43
2022-08-30T01:11:47.992Z,8.20
2022-08-30T01:14:15.272Z,6.15
2022-08-30T01:16:43.519Z,5.00
2022-08-30T01:19:31.313Z,5.68
2022-08-30T01:22:08.448Z,6.30
2022-08-30T01:24:35.743Z,6.57
2022-08-30T01:27:02.068Z,4.90
2022-08-30T01:29:28.482Z,6.70
2022-08-30T01:31:54.660Z,6.22
2022-08-30T01:34:20.937Z,8.27
2022-08-30T01:36:48.559Z,5.88
2022-08-30T01:39:17.027Z,7.22
2022-08-30T01:41:43.813Z,6.50
2022-08-30T01:44:12.161Z,7.68
2022-08-30T01:46:42.414Z,5.78
2022-08-30T01:49:12.852Z,11.15
2022-08-30T01:51:40.509Z,7.10
2022-08-30T01:54:06.996Z,7.20
2022-08-30T01:56:33.255Z,6.57
2022-08-30T01:59:02.900Z,7.18
2022-08-30T02:01:30.820Z,6.75
2022-08-30T02:03:58.735Z,8.57
2022-08-30T02:06:25.041Z,8.40
2022-08-30T02:08:51.376Z,7.50
2022-08-30T02:11:17.646Z,7.60
2022-08-30T02:13:45.319Z,7.03
2022-08-30T02:16:16.241Z,6.88
2022-08-30T02:18:42.845Z,7.60
2022-08-30T02:21:09.517Z,7.68
2022-08-30T02:23:36.697Z,8.05
2022-08-30T02:26:03.972Z,7.03
2022-08-30T02:28:30.406Z,6.47
2022-08-30T02:30:56.670Z,14.40
2022-08-30T02:33:22.948Z,18.27
2022-08-30T02:35:49.194Z,9.52
2022-08-30T02:38:15.947Z,7.32
2022-08-30T02:40:46.279Z,7.47
2022-08-30T02:43:12.573Z,7.57
2022-08-30T02:45:38.806Z,6.72
2022-08-30T02:48:05.096Z,6.38
2022-08-30T02:50:31.469Z,8.02
2022-08-30T02:52:57.672Z,9.07
2022-08-30T02:55:23.942Z,7.57
2022-08-30T02:57:50.143Z,7.18
2022-08-30T03:00:20.265Z,8.35
2022-08-30T03:02:47.038Z,5.82
2022-08-30T03:05:15.745Z,7.63
2022-08-30T03:07:42.928Z,7.28
2022-08-30T03:10:09.776Z,6.25
2022-08-30T03:12:36.246Z,6.55
2022-08-30T03:15:02.536Z,6.85
2022-08-30T03:17:31.279Z,6.80
2022-08-30T03:20:00.408Z,6.75
2022-08-30T03:22:26.886Z,7.53
2022-08-30T03:24:53.043Z,7.63
2022-08-30T03:27:19.244Z,8.55
2022-08-30T03:29:45.408Z,7.40
2022-08-30T03:32:11.756Z,7.90
2022-08-30T03:34:37.960Z,6.82
2022-08-30T03:37:04.136Z,9.10
2022-08-30T03:39:30.431Z,6.47
2022-08-30T03:41:56.584Z,7.07
2022-08-30T03:44:22.802Z,8.32
2022-08-30T03:46:49.345Z,6.40
2022-08-30T03:49:15.680Z,6.88
2022-08-30T03:51:41.943Z,8.30
2022-08-30T03:54:08.400Z,7.85
2022-08-30T03:56:34.556Z,6.97
2022-08-30T03:59:00.749Z,6.25
2022-08-30T04:01:27.501Z,6.65
2022-08-30T04:03:53.727Z,5.90
2022-08-30T04:06:20.000Z,7.63
2022-08-30T04:08:46.183Z,8.10
2022-08-30T04:11:15.154Z,8.07
2022-08-30T04:13:41.326Z,7.38
2022-08-30T04:16:07.555Z,6.05
2022-08-30T04:18:34.853Z,8.65
2022-08-30T04:21:01.513Z,11.00
2022-08-30T04:23:28.636Z,9.63
2022-08-30T04:25:55.922Z,9.68
2022-08-30T04:28:22.804Z,11.80
2022-08-30T04:30:48.968Z,9.57
2022-08-30T04:33:16.986Z,9.15
2022-08-30T04:35:44.889Z,9.93
2022-08-30T04:38:11.870Z,11.60
2022-08-30T04:40:38.086Z,12.77
2022-08-30T04:43:04.555Z,16.60
2022-08-30T04:45:30.799Z,14.68
2022-08-30T04:47:57.201Z,17.92
2022-08-30T04:50:23.524Z,18.10
2022-08-30T04:52:49.700Z,19.95
2022-08-30T04:55:20.041Z,18.75
2022-08-30T04:57:46.602Z,24.33
2022-08-30T05:00:13.588Z,18.77
2022-08-30T05:02:41.268Z,20.85
2022-08-30T05:05:27.032Z,17.63
2022-08-30T05:10:19.236Z,17.15
2022-08-30T05:12:45.412Z,19.20
2022-08-30T05:15:12.419Z,17.23
2022-08-30T05:17:39.444Z,17.23
2022-08-30T05:20:07.873Z,15.95
2022-08-30T05:22:36.911Z,17.55
2022-08-30T05:25:04.215Z,18.52
2022-08-30T05:27:30.450Z,16.38
2022-08-30T05:29:56.644Z,17.30
2022-08-30T05:32:23.001Z,16.67
2022-08-30T05:34:49.692Z,17.75
2022-08-30T05:37:17.544Z,17.02
2022-08-30T05:39:51.199Z,18.27
2022-08-30T05:42:17.732Z,17.75
2022-08-30T05:44:44.387Z,19.20
2022-08-30T05:47:10.664Z,15.68
2022-08-30T05:49:36.855Z,15.07
2022-08-30T05:52:04.283Z,16.60
2022-08-30T05:54:30.435Z,19.08
2022-08-30T05:56:56.645Z,17.60
2022-08-30T05:59:22.814Z,17.13
2022-08-30T06:01:49.031Z,15.98
2022-08-30T06:04:15.522Z,15.40
2022-08-30T06:06:43.609Z,13.93
2022-08-30T06:09:11.592Z,13.98
2022-08-30T06:11:37.919Z,15.68
2022-08-30T06:14:05.147Z,14.35
2022-08-30T06:16:31.828Z,13.55
2022-08-30T06:18:59.367Z,14.15
2022-08-30T06:21:29.646Z,13.35
2022-08-30T06:23:57.796Z,13.25
2022-08-30T06:26:24.201Z,14.05
2022-08-30T06:28:50.620Z,14.18
2022-08-30T06:31:18.877Z,11.13
2022-08-30T06:33:45.688Z,15.35
2022-08-30T06:36:19.355Z,10.20
2022-08-30T06:38:46.241Z,11.20
2022-08-30T06:41:15.152Z,12.23
2022-08-30T06:43:45.502Z,8.32
2022-08-30T06:46:18.011Z,11.43
2022-08-30T06:48:46.414Z,7.47
2022-08-30T06:51:14.918Z,7.97
2022-08-30T06:53:42.074Z,6.97
2022-08-30T06:56:16.500Z,7.18
2022-08-30T06:58:43.190Z,7.57
2022-08-30T07:01:14.093Z,5.22
2022-08-30T07:03:40.289Z,6.43
2022-08-30T07:06:07.025Z,5.40
2022-08-30T07:08:33.214Z,6.28
2022-08-30T07:10:59.731Z,4.60
2022-08-30T07:13:26.123Z,4.25
2022-08-30T07:15:52.843Z,6.70
2022-08-30T07:18:38.111Z,4.32
2022-08-30T07:21:13.224Z,3.58
2022-08-30T07:23:40.119Z,4.38
2022-08-30T07:26:08.216Z,4.20
2022-08-30T07:28:36.949Z,3.15
2022-08-30T07:31:03.184Z,3.63
2022-08-30T07:33:29.393Z,3.55
2022-08-30T07:35:55.565Z,3.40
2022-08-30T07:38:21.719Z,2.58
2022-08-30T07:40:47.991Z,2.28
2022-08-30T07:43:14.157Z,3.42
2022-08-30T07:45:40.336Z,4.15
2022-08-30T07:48:07.384Z,2.22
2022-08-30T07:50:33.999Z,2.83
2022-08-30T07:53:00.253Z,3.13
2022-08-30T07:55:26.416Z,1.70
2022-08-30T07:57:52.699Z,1.70
2022-08-30T08:00:19.011Z,2.15
2022-08-30T08:02:45.657Z,1.70
2022-08-30T08:05:15.159Z,1.90
2022-08-30T08:07:43.542Z,3.30
2022-08-30T08:10:10.332Z,1.30
2022-08-30T08:12:36.672Z,2.00
2022-08-30T08:15:06.773Z,1.33
2022-08-30T08:17:35.160Z,1.60
2022-08-30T08:20:01.303Z,3.75
2022-08-30T08:22:27.463Z,1.88
2022-08-30T08:24:53.717Z,1.95
2022-08-30T08:27:19.900Z,1.40
2022-08-30T08:29:46.079Z,3.58
2022-08-30T08:32:12.264Z,1.50
2022-08-30T08:34:38.423Z,1.50
2022-08-30T08:37:04.595Z,1.23
2022-08-30T08:39:30.905Z,1.38
2022-08-30T08:42:25.027Z,1.73
2022-08-30T08:44:54.533Z,2.70
2022-08-30T08:47:38.608Z,2.30
2022-08-30T08:50:12.880Z,2.15
2022-08-30T08:53:24.916Z,2.05
2022-08-30T08:55:56.641Z,4.03
2022-08-30T08:58:26.987Z,2.05
2022-08-30T09:00:54.250Z,1.85
2022-08-30T09:03:22.891Z,3.08
2022-08-30T09:05:50.119Z,3.70
2022-08-30T09:08:18.987Z,4.60
2022-08-30T09:10:51.370Z,3.60
2022-08-30T09:13:19.063Z,2.83
2022-08-30T09:15:45.606Z,2.60
2022-08-30T09:18:19.389Z,3.35
2022-08-30T09:20:49.335Z,1.70
2022-08-30T09:23:15.437Z,2.50
2022-08-30T09:25:52.103Z,4.53
2022-08-30T09:28:26.376Z,3.17
2022-08-30T09:31:19.026Z,2.42
2022-08-30T09:33:55.736Z,2.22
2022-08-30T09:36:33.240Z,2.50
2022-08-30T09:39:02.099Z,1.70
2022-08-30T09:41:40.209Z,2.65
2022-08-30T09:44:15.863Z,2.10
2022-08-30T09:46:56.101Z,1.25
2022-08-30T09:49:40.892Z,2.08
2022-08-30T09:52:38.672Z,1.85
2022-08-30T09:55:35.214Z,1.30
2022-08-30T09:58:35.740Z,1.00
2022-08-30T10:01:14.301Z,1.35
2022-08-30T10:04:40.718Z,1.30
2022-08-30T10:07:16.301Z,1.33
2022-08-30T10:09:48.282Z,1.73
2022-08-30T10:12:24.955Z,1.92
2022-08-30T10:15:02.487Z,2.55
2022-08-30T10:17:39.200Z,2.25
2022-08-30T10:20:26.645Z,1.10
2022-08-30T10:23:16.765Z,1.35
2022-08-30T10:25:51.512Z,1.52
2022-08-30T10:28:46.782Z,1.35
2022-08-30T10:33:48.813Z,1.23
2022-08-30T10:36:15.724Z,1.02
2022-08-30T10:38:48.398Z,2.20
2022-08-30T10:41:41.472Z,1.67
2022-08-30T10:44:15.637Z,0.80
2022-08-30T10:46:58.349Z,2.35
2022-08-30T10:49:28.369Z,0.80
2022-08-30T10:52:07.131Z,0.73
2022-08-30T10:54:50.612Z,2.88
2022-08-30T10:57:18.687Z,1.25
2022-08-30T11:00:10.827Z,22.67
2022-08-30T11:02:55.099Z,5.25
2022-08-30T11:05:54.451Z,1.40
2022-08-30T11:08:46.995Z,1.67
2022-08-30T11:11:34.474Z,3.10
2022-08-30T11:14:06.296Z,1.90
2022-08-30T11:16:45.610Z,4.07
2022-08-30T11:19:38.317Z,1.23
2022-08-30T11:22:21.408Z,2.55
2022-08-30T11:25:11.775Z,1.10
2022-08-30T11:27:56.507Z,1.42
2022-08-30T11:30:26.557Z,1.75
2022-08-30T11:33:09.361Z,1.45
2022-08-30T11:35:39.365Z,1.42
2022-08-30T11:38:39.786Z,1.10
2022-08-30T11:41:28.855Z,1.20
2022-08-30T11:43:57.263Z,3.22
2022-08-30T11:46:26.244Z,1.92
2022-08-30T11:49:15.767Z,2.08
2022-08-30T11:51:58.131Z,1.73
2022-08-30T11:55:00.074Z,1.92
2022-08-30T11:57:45.955Z,1.80
2022-08-30T12:00:35.831Z,1.42
2022-08-30T12:03:14.379Z,1.30
2022-08-30T12:05:44.383Z,1.30
2022-08-30T12:08:37.768Z,1.55
2022-08-30T12:11:10.876Z,1.40
2022-08-30T12:13:37.172Z,1.65
2022-08-30T12:16:13.024Z,1.70
2022-08-30T12:18:50.880Z,1.70
2022-08-30T12:21:19.716Z,2.42
2022-08-30T12:24:09.208Z,1.77
2022-08-30T12:26:42.771Z,2.10
2022-08-30T12:29:14.104Z,2.50
2022-08-30T12:31:52.536Z,1.42
2022-08-30T12:34:35.550Z,2.15
2022-08-30T12:37:08.543Z,1.60
2022-08-30T12:39:41.185Z,1.85
2022-08-30T12:42:14.655Z,2.42
2022-08-30T12:44:45.306Z,1.70
2022-08-30T12:47:14.359Z,2.70
2022-08-30T12:49:41.724Z,2.70
2022-08-30T12:52:26.321Z,2.45
2022-08-30T12:54:55.216Z,2.90
2022-08-30T12:58:09.530Z,2.20
2022-08-30T13:00:43.147Z,2.10
2022-08-30T13:03:37.533Z,2.25
2022-08-30T13:06:07.488Z,3.03
2022-08-30T13:08:50.820Z,1.95
2022-08-30T13:11:20.826Z,2.33
2022-08-30T13:13:53.194Z,2.65
2022-08-30T13:16:20.686Z,2.78
2022-08-30T13:18:53.390Z,2.40
2022-08-30T13:21:34.503Z,2.50
2022-08-30T13:24:03.428Z,2.60
2022-08-30T13:26:33.993Z,3.10
2022-08-30T13:29:03.649Z,3.65
2022-08-30T13:31:30.785Z,5.10
2022-08-30T13:33:57.087Z,4.38
2022-08-30T13:36:28.927Z,3.35
2022-08-30T13:38:55.663Z,3.45
2022-08-30T13:41:21.832Z,3.10
2022-08-30T13:46:35.864Z,25.80
2022-08-30T13:49:43.127Z,23.25
2022-08-30T13:52:18.506Z,7.15
2022-08-30T13:54:41.329Z,6.95
2022-08-30T13:57:07.493Z,9.20
2022-08-30T13:59:34.212Z,4.72
2022-08-30T14:02:10.529Z,6.10
2022-08-30T14:04:38.024Z,17.67
2022-08-30T14:07:14.109Z,19.83
2022-08-30T14:09:43.205Z,21.23
2022-08-30T14:12:09.838Z,20.17
2022-08-30T14:14:43.179Z,19.52
2022-08-30T14:17:10.400Z,23.45
2022-08-30T14:19:38.778Z,15.32
2022-08-30T14:22:05.075Z,13.70
2022-08-30T14:24:31.279Z,12.15
2022-08-30T14:26:58.395Z,15.90
2022-08-30T14:29:29.796Z,7.15
2022-08-30T14:31:56.906Z,8.13
2022-08-30T14:34:26.119Z,8.02
2022-08-30T14:36:52.297Z,5.03
2022-08-30T14:39:20.124Z,13.93
2022-08-30T14:41:52.136Z,11.88
2022-08-30T14:44:20.136Z,24.00
2022-08-30T14:46:47.075Z,19.58
2022-08-30T14:49:14.196Z,16.48
2022-08-30T14:51:41.359Z,13.25
2022-08-30T14:54:08.286Z,8.90
2022-08-30T14:56:34.963Z,10.35
2022-08-30T14:59:02.970Z,7.22
2022-08-30T15:01:30.346Z,9.80
2022-08-30T15:03:57.591Z,7.82
2022-08-30T15:06:24.472Z,8.63
2022-08-30T15:08:52.823Z,7.10
2022-08-30T15:11:22.387Z,6.95
2022-08-30T15:13:49.174Z,7.32
2022-08-30T15:16:27.826Z,8.40
2022-08-30T15:18:54.819Z,6.05
2022-08-30T15:21:32.854Z,5.35
2022-08-30T15:24:00.235Z,7.75
2022-08-30T15:26:27.129Z,9.10
2022-08-30T15:28:54.522Z,6.22
2022-08-30T15:31:23.014Z,6.40
2022-08-30T15:33:49.841Z,5.25
2022-08-30T15:36:16.164Z,5.72
2022-08-30T15:38:42.678Z,4.53
2022-08-30T15:41:10.625Z,5.13
2022-08-30T15:43:37.147Z,5.47
2022-08-30T15:46:22.803Z,4.07
2022-08-30T15:48:51.880Z,4.22
2022-08-30T15:51:19.184Z,3.80
2022-08-30T15:53:46.164Z,3.83
2022-08-30T15:56:12.604Z,4.28
2022-08-30T15:58:39.701Z,4.40
2022-08-30T16:01:06.805Z,5.78
2022-08-30T16:03:34.948Z,5.25
2022-08-30T16:06:03.977Z,6.85
2022-08-30T16:08:30.172Z,6.18
2022-08-30T16:10:56.314Z,6.40
2022-08-30T16:13:22.598Z,4.30
2022-08-30T16:15:49.604Z,6.30
2022-08-30T16:18:16.345Z,3.88
2022-08-30T16:20:43.555Z,5.82
2022-08-30T16:23:11.345Z,3.78
2022-08-30T16:25:40.108Z,4.28
2022-08-30T16:28:07.654Z,4.05
2022-08-30T16:30:35.723Z,4.03
2022-08-30T16:33:02.135Z,4.65
2022-08-30T16:35:28.291Z,3.53
2022-08-30T16:37:55.617Z,3.47
2022-08-30T16:40:21.773Z,4.47
2022-08-30T16:42:49.348Z,5.70
2022-08-30T16:45:15.550Z,7.18
2022-08-30T16:47:41.707Z,5.45
2022-08-30T16:50:08.177Z,10.43
2022-08-30T16:52:34.415Z,13.10
2022-08-30T16:55:01.029Z,15.43
2022-08-30T16:57:27.909Z,15.18
2022-08-30T16:59:54.308Z,12.63
2022-08-30T17:02:21.536Z,7.03
2022-08-30T17:04:52.351Z,26.67
2022-08-30T17:07:21.514Z,12.27
2022-08-30T17:09:48.695Z,10.05
2022-08-30T17:12:14.999Z,9.02
2022-08-30T17:14:41.836Z,4.10
2022-08-30T17:17:10.177Z,4.25
2022-08-30T17:19:42.211Z,3.50
2022-08-30T17:22:11.164Z,3.70
2022-08-30T17:24:37.516Z,3.95
2022-08-30T17:27:05.087Z,3.88
2022-08-30T17:29:31.283Z,4.15
2022-08-30T17:31:57.725Z,3.65
2022-08-30T17:34:26.446Z,5.15
2022-08-30T17:36:55.569Z,4.40
2022-08-30T17:39:23.609Z,5.00
2022-08-30T17:41:51.658Z,4.80
2022-08-30T17:44:20.646Z,4.88
2022-08-30T17:46:46.951Z,3.40
2022-08-30T17:49:13.202Z,4.05
2022-08-30T17:51:42.184Z,3.28
2022-08-30T17:54:09.705Z,3.13
2022-08-30T17:56:35.942Z,3.53
2022-08-30T17:59:04.900Z,4.50
2022-08-30T18:01:31.461Z,4.25
2022-08-30T18:04:06.123Z,3.28
2022-08-30T18:06:33.388Z,8.00
2022-08-30T18:09:00.196Z,5.88
2022-08-30T18:11:26.375Z,7.85
2022-08-30T18:13:52.651Z,6.03
2022-08-30T18:16:21.640Z,5.30
2022-08-30T18:18:57.014Z,4.72
2022-08-30T18:21:23.563Z,4.15
2022-08-30T18:23:51.398Z,6.97
2022-08-30T18:26:17.587Z,4.25
2022-08-30T18:28:44.486Z,3.88
2022-08-30T18:31:11.012Z,3.60
2022-08-30T18:33:37.191Z,4.00
2022-08-30T18:36:05.708Z,3.95
2022-08-30T18:38:32.685Z,5.38
2022-08-30T18:41:06.588Z,4.55
2022-08-30T18:43:33.473Z,5.07
2022-08-30T18:46:05.519Z,4.57
2022-08-30T18:48:32.901Z,6.32
2022-08-30T18:51:01.455Z,5.63
2022-08-30T18:53:29.343Z,6.78
2022-08-30T18:55:56.192Z,8.88
2022-08-30T18:58:22.480Z,7.97
2022-08-30T19:00:49.183Z,7.43
2022-08-30T19:03:15.367Z,8.00
2022-08-30T19:05:41.548Z,6.00
2022-08-30T19:08:08.272Z,4.53
2022-08-30T19:10:35.532Z,7.38
2022-08-30T19:13:03.082Z,7.18
2022-08-30T19:15:34.188Z,5.40
2022-08-30T19:18:01.464Z,4.70
2022-08-30T19:20:28.200Z,4.80
2022-08-30T19:23:09.836Z,5.78
2022-08-30T19:25:42.206Z,5.32
2022-08-30T19:28:09.583Z,5.63
2022-08-30T19:30:36.276Z,4.85
2022-08-30T19:33:02.561Z,6.85
2022-08-30T19:35:30.124Z,5.95
2022-08-30T19:37:56.667Z,4.68
2022-08-30T19:40:23.165Z,4.00
2022-08-30T19:42:50.639Z,4.07
2022-08-30T19:45:21.664Z,4.47
2022-08-30T19:47:49.362Z,7.03
2022-08-30T19:50:16.855Z,4.30
2022-08-30T19:52:45.653Z,6.38
2022-08-30T19:55:14.363Z,4.70
2022-08-30T19:57:43.118Z,5.57
2022-08-30T20:00:12.423Z,3.60
2022-08-30T20:02:43.018Z,4.90
2022-08-30T20:05:10.907Z,4.53
2022-08-30T20:07:39.251Z,4.65
2022-08-30T20:10:09.325Z,5.57
2022-08-30T20:12:36.370Z,5.78
2022-08-30T20:15:09.363Z,4.05
2022-08-30T20:17:53.653Z,3.58
2022-08-30T20:20:22.858Z,4.70
2022-08-30T20:22:54.049Z,3.97
2022-08-30T20:25:20.693Z,4.07
2022-08-30T20:27:46.882Z,4.60
2022-08-30T20:30:14.665Z,3.70
2022-08-30T20:32:46.797Z,2.65
2022-08-30T20:35:15.892Z,2.92
2022-08-30T20:37:43.371Z,2.63
2022-08-30T20:40:15.051Z,2.90
2022-08-30T20:42:44.684Z,4.53
2022-08-30T20:45:13.157Z,2.88
2022-08-30T20:47:40.856Z,4.15
2022-08-30T20:50:13.575Z,3.38
2022-08-30T20:52:40.709Z,3.20
2022-08-30T20:55:08.151Z,2.53
2022-08-30T20:57:34.494Z,2.90
2022-08-30T21:00:01.070Z,5.20
2022-08-30T21:02:27.473Z,2.65
2022-08-30T21:04:53.696Z,4.43
2022-08-30T21:07:19.870Z,3.75
2022-08-30T21:09:46.021Z,4.88
2022-08-30T21:12:12.209Z,2.50
2022-08-30T21:14:38.376Z,2.35
2022-08-30T21:17:04.608Z,2.97
2022-08-30T21:19:30.903Z,2.65
2022-08-30T21:21:57.091Z,2.22
2022-08-30T21:24:23.254Z,3.70
2022-08-30T21:26:49.586Z,2.63
2022-08-30T21:29:15.744Z,2.45
2022-08-30T21:31:42.884Z,1.73
2022-08-30T21:34:13.195Z,3.58
2022-08-30T21:36:47.063Z,2.33
2022-08-30T21:39:23.971Z,4.22
2022-08-30T21:41:54.549Z,2.95
2022-08-30T21:44:23.016Z,3.25
2022-08-30T21:46:50.924Z,2.40
2022-08-30T21:49:20.127Z,2.92
2022-08-30T21:51:48.336Z,2.80
2022-08-30T21:54:16.913Z,3.55
2022-08-30T21:56:45.597Z,2.85
2022-08-30T21:59:12.686Z,2.78
2022-08-30T22:01:40.563Z,2.83
2022-08-30T22:04:10.059Z,3.13
2022-08-30T22:06:38.391Z,2.00
2022-08-30T22:09:09.716Z,3.30
2022-08-30T22:11:37.650Z,3.25
2022-08-30T22:14:05.748Z,2.53
2022-08-30T22:16:32.277Z,2.22
2022-08-30T22:18:58.618Z,3.97
2022-08-30T22:21:28.604Z,2.60
2022-08-30T22:23:55.640Z,3.05
2022-08-30T22:26:23.995Z,2.40
2022-08-30T22:28:51.675Z,3.38
2022-08-30T22:31:19.210Z,2.55
2022-08-30T22:33:47.164Z,5.63
2022-08-30T22:36:20.689Z,2.13
2022-08-30T22:38:48.921Z,2.97
2022-08-30T22:41:17.727Z,4.18
2022-08-30T22:43:44.544Z,3.80
2022-08-30T22:46:14.392Z,3.17
2022-08-30T22:48:43.220Z,4.03
2022-08-30T22:51:10.631Z,2.10
2022-08-30T22:53:37.097Z,4.18
2022-08-30T22:56:20.763Z,3.88
2022-08-30T22:58:48.191Z,3.38
2022-08-30T23:01:28.030Z,4.35
2022-08-30T23:03:54.606Z,1.95
2022-08-30T23:06:21.146Z,2.63
2022-08-30T23:08:47.748Z,3.00
2022-08-30T23:11:14.151Z,2.58
2022-08-30T23:13:41.156Z,4.70
2022-08-30T23:16:08.667Z,3.20
2022-08-30T23:18:37.050Z,2.33
2022-08-30T23:21:12.635Z,4.55
2022-08-30T23:23:57.646Z,3.75
2022-08-30T23:26:42.707Z,2.03
2022-08-30T23:29:27.515Z,3.33
2022-08-30T23:32:12.276Z,1.80
2022-08-30T23:34:57.212Z,2.95
2022-08-30T23:37:42.098Z,3.00
2022-08-30T23:40:28.182Z,2.80
2022-08-30T23:43:13.163Z,2.42
2022-08-30T23:45:58.004Z,3.00
2022-08-30T23:48:50.612Z,3.30
2022-08-30T23:51:36.971Z,3.58
2022-08-30T23:54:23.904Z,4.20
2022-08-30T23:57:09.179Z,4.13
2022-08-30T23:59:53.988Z,3.10
